sensor_id;sensor_type;location;lat;lon;timestamp;pressure;altitude;pressure_sealevel;temperature;humidity
59831;BME280;45711;50.108;13.712;2024-03-02T00:00:59;96972.53;;;6.47;100.00
59831;BME280;45711;50.108;13.712;2024-03-02T00:03:24;96969.63;;;6.49;100.00
59831;BME280;45711;50.108;13.712;2024-03-02T00:05:50;96976.28;;;6.46;100.00
59831;BME280;45711;50.108;13.712;2024-03-02T00:08:25;96978.94;;;6.46;100.00
59831;BME280;45711;50.108;13.712;2024-03-02T00:10:57;96973.41;;;6.38;100.00
59831;BME280;45711;50.108;13.712;2024-03-02T00:13:24;96976.03;;;6.43;100.00
59831;BME280;45711;50.108;13.712;2024-03-02T00:15:52;96973.91;;;6.45;100.00
59831;BME280;45711;50.108;13.712;2024-03-02T00:18:23;96977.06;;;6.47;100.00
59831;BME280;45711;50.108;13.712;2024-03-02T00:20:52;96973.38;;;6.43;100.00
59831;BME280;45711;50.108;13.712;2024-03-02T00:23:18;96982.13;;;6.43;100.00
59831;BME280;45711;50.108;13.712;2024-03-02T00:25:46;96971.25;;;6.45;100.00
59831;BME280;45711;50.108;13.712;2024-03-02T00:28:17;96977.59;;;6.49;100.00
59831;BME280;45711;50.108;13.712;2024-03-02T00:30:57;96970.47;;;6.44;100.00
59831;BME280;45711;50.108;13.712;2024-03-02T00:33:27;96974.16;;;6.43;100.00
59831;BME280;45711;50.108;13.712;2024-03-02T00:35:57;96978.19;;;6.41;100.00
59831;BME280;45711;50.108;13.712;2024-03-02T00:38:22;96975.75;;;6.49;100.00
59831;BME280;45711;50.108;13.712;2024-03-02T00:40:48;96970.16;;;6.46;100.00
59831;BME280;45711;50.108;13.712;2024-03-02T00:43:37;96969.91;;;6.42;100.00
59831;BME280;45711;50.108;13.712;2024-03-02T00:46:04;96973.38;;;6.43;100.00
59831;BME280;45711;50.108;13.712;2024-03-02T00:48:31;96973.88;;;6.50;100.00
59831;BME280;45711;50.108;13.712;2024-03-02T00:50:57;96970.13;;;6.51;100.00
59831;BME280;45711;50.108;13.712;2024-03-02T00:53:24;96975.16;;;6.58;100.00
59831;BME280;45711;50.108;13.712;2024-03-02T00:55:51;96976.78;;;6.53;100.00
59831;BME280;45711;50.108;13.712;2024-03-02T00:58:17;96977.28;;;6.55;100.00
59831;BME280;45711;50.108;13.712;2024-03-02T01:00:43;96971.72;;;6.52;100.00
59831;BME280;45711;50.108;13.712;2024-03-02T01:03:08;96968.81;;;6.48;100.00
59831;BME280;45711;50.108;13.712;2024-03-02T01:05:41;96974.94;;;6.44;100.00
59831;BME280;45711;50.108;13.712;2024-03-02T01:08:06;96979.22;;;6.40;100.00
59831;BME280;45711;50.108;13.712;2024-03-02T01:10:32;96977.59;;;6.44;100.00
59831;BME280;45711;50.108;13.712;2024-03-02T01:12:57;96973.28;;;6.58;100.00
59831;BME280;45711;50.108;13.712;2024-03-02T01:15:23;96966.16;;;6.53;100.00
59831;BME280;45711;50.108;13.712;2024-03-02T01:17:48;96954.69;;;6.58;100.00
59831;BME280;45711;50.108;13.712;2024-03-02T01:20:14;96959.69;;;6.65;100.00
59831;BME280;45711;50.108;13.712;2024-03-02T01:22:41;96956.31;;;6.54;100.00
59831;BME280;45711;50.108;13.712;2024-03-02T01:25:08;96958.13;;;6.59;100.00
59831;BME280;45711;50.108;13.712;2024-03-02T01:27:34;96955.94;;;6.66;100.00
59831;BME280;45711;50.108;13.712;2024-03-02T01:29:59;96962.88;;;6.62;100.00
59831;BME280;45711;50.108;13.712;2024-03-02T01:32:25;96959.69;;;6.65;100.00
59831;BME280;45711;50.108;13.712;2024-03-02T01:34:50;96956.22;;;6.64;100.00
59831;BME280;45711;50.108;13.712;2024-03-02T01:37:16;96956.28;;;6.59;100.00
59831;BME280;45711;50.108;13.712;2024-03-02T01:39:43;96955.00;;;6.46;100.00
59831;BME280;45711;50.108;13.712;2024-03-02T01:42:09;96961.63;;;6.54;100.00
59831;BME280;45711;50.108;13.712;2024-03-02T01:44:36;96957.38;;;6.48;100.00
59831;BME280;45711;50.108;13.712;2024-03-02T01:47:01;96964.75;;;6.61;100.00
59831;BME280;45711;50.108;13.712;2024-03-02T01:49:27;96960.50;;;6.60;100.00
59831;BME280;45711;50.108;13.712;2024-03-02T01:51:52;96960.78;;;6.59;100.00
59831;BME280;45711;50.108;13.712;2024-03-02T01:54:18;96965.03;;;6.60;100.00
59831;BME280;45711;50.108;13.712;2024-03-02T01:56:45;96961.31;;;6.61;100.00
59831;BME280;45711;50.108;13.712;2024-03-02T01:59:11;96958.06;;;6.69;100.00
59831;BME280;45711;50.108;13.712;2024-03-02T02:01:37;96959.69;;;6.65;100.00
59831;BME280;45711;50.108;13.712;2024-03-02T02:04:02;96959.38;;;6.71;100.00
59831;BME280;45711;50.108;13.712;2024-03-02T02:06:28;96956.44;;;6.73;100.00
59831;BME280;45711;50.108;13.712;2024-03-02T02:08:54;96964.41;;;6.73;100.00
59831;BME280;45711;50.108;13.712;2024-03-02T02:11:19;96962.00;;;6.76;100.00
59831;BME280;45711;50.108;13.712;2024-03-02T02:13:46;96964.34;;;6.83;100.00
59831;BME280;45711;50.108;13.712;2024-03-02T02:16:12;96961.41;;;6.85;100.00
59831;BME280;45711;50.108;13.712;2024-03-02T02:18:37;96954.63;;;6.68;100.00
59831;BME280;45711;50.108;13.712;2024-03-02T02:21:03;96949.25;;;6.73;100.00
59831;BME280;45711;50.108;13.712;2024-03-02T02:23:30;96959.66;;;6.70;100.00
59831;BME280;45711;50.108;13.712;2024-03-02T02:25:56;96957.19;;;6.78;100.00
59831;BME280;45711;50.108;13.712;2024-03-02T02:28:21;96951.13;;;6.73;100.00
59831;BME280;45711;50.108;13.712;2024-03-02T02:30:47;96954.03;;;6.76;100.00
59831;BME280;45711;50.108;13.712;2024-03-02T02:33:12;96950.03;;;6.74;100.00
59831;BME280;45711;50.108;13.712;2024-03-02T02:35:38;96956.97;;;6.75;100.00
59831;BME280;45711;50.108;13.712;2024-03-02T02:38:04;96948.53;;;6.63;100.00
59831;BME280;45711;50.108;13.712;2024-03-02T02:40:31;96952.00;;;6.63;100.00
59831;BME280;45711;50.108;13.712;2024-03-02T02:42:56;96952.72;;;6.74;100.00
59831;BME280;45711;50.108;13.712;2024-03-02T02:45:22;96952.66;;;6.79;100.00
59831;BME280;45711;50.108;13.712;2024-03-02T02:47:48;96944.47;;;6.75;100.00
59831;BME280;45711;50.108;13.712;2024-03-02T02:50:14;96945.50;;;6.79;100.00
59831;BME280;45711;50.108;13.712;2024-03-02T02:52:40;96933.06;;;6.70;100.00
59831;BME280;45711;50.108;13.712;2024-03-02T02:55:07;96937.31;;;6.71;100.00
59831;BME280;45711;50.108;13.712;2024-03-02T02:57:36;96946.94;;;6.62;100.00
59831;BME280;45711;50.108;13.712;2024-03-02T03:00:05;96946.34;;;6.70;100.00
59831;BME280;45711;50.108;13.712;2024-03-02T03:02:35;96951.41;;;6.71;100.00
59831;BME280;45711;50.108;13.712;2024-03-02T03:05:01;96947.13;;;6.70;100.00
59831;BME280;45711;50.108;13.712;2024-03-02T03:07:26;96948.22;;;6.69;100.00
59831;BME280;45711;50.108;13.712;2024-03-02T03:09:52;96950.88;;;6.69;100.00
59831;BME280;45711;50.108;13.712;2024-03-02T03:12:18;96948.22;;;6.69;100.00
59831;BME280;45711;50.108;13.712;2024-03-02T03:14:45;96951.41;;;6.71;100.00
59831;BME280;45711;50.108;13.712;2024-03-02T03:17:11;96953.78;;;6.73;100.00
59831;BME280;45711;50.108;13.712;2024-03-02T03:19:38;96952.72;;;6.74;100.00
59831;BME280;45711;50.108;13.712;2024-03-02T03:22:03;96950.03;;;6.74;100.00
59831;BME280;45711;50.108;13.712;2024-03-02T03:24:29;96951.91;;;6.73;100.00
59831;BME280;45711;50.108;13.712;2024-03-02T03:26:55;96951.66;;;6.70;100.00
59831;BME280;45711;50.108;13.712;2024-03-02T03:29:20;96956.19;;;6.69;100.00
59831;BME280;45711;50.108;13.712;2024-03-02T03:31:47;96951.91;;;6.73;100.00
59831;BME280;45711;50.108;13.712;2024-03-02T03:34:13;96956.47;;;6.68;100.00
59831;BME280;45711;50.108;13.712;2024-03-02T03:36:41;96953.28;;;6.71;100.00
59831;BME280;45711;50.108;13.712;2024-03-02T03:39:06;96961.16;;;6.81;100.00
59831;BME280;45711;50.108;13.712;2024-03-02T03:41:32;96956.44;;;6.73;100.00
59831;BME280;45711;50.108;13.712;2024-03-02T03:43:58;96959.34;;;6.76;100.00
59831;BME280;45711;50.108;13.712;2024-03-02T03:46:23;96956.72;;;6.71;100.00
59831;BME280;45711;50.108;13.712;2024-03-02T03:48:50;96954.31;;;6.75;100.00
59831;BME280;45711;50.108;13.712;2024-03-02T03:51:16;96954.03;;;6.76;100.00
59831;BME280;45711;50.108;13.712;2024-03-02T03:53:41;96960.19;;;6.72;100.00
59831;BME280;45711;50.108;13.712;2024-03-02T03:56:07;96955.06;;;6.80;100.00
59831;BME280;45711;50.108;13.712;2024-03-02T03:58:32;96959.31;;;6.82;100.00
59831;BME280;45711;50.108;13.712;2024-03-02T04:00:58;96954.84;;;6.72;100.00
59831;BME280;45711;50.108;13.712;2024-03-02T04:03:23;96960.47;;;6.65;100.00
59831;BME280;45711;50.108;13.712;2024-03-02T04:05:51;96957.19;;;6.78;100.00
59831;BME280;45711;50.108;13.712;2024-03-02T04:08:16;96956.09;;;6.85;100.00
59831;BME280;45711;50.108;13.712;2024-03-02T04:10:42;96945.19;;;6.86;100.00
59831;BME280;45711;50.108;13.712;2024-03-02T04:13:07;96948.13;;;6.85;100.00
59831;BME280;45711;50.108;13.712;2024-03-02T04:15:33;96947.53;;;6.88;100.00
59831;BME280;45711;50.108;13.712;2024-03-02T04:17:58;96957.63;;;6.91;100.00
59831;BME280;45711;50.108;13.712;2024-03-02T04:20:24;96954.53;;;6.84;100.00
59831;BME280;45711;50.108;13.712;2024-03-02T04:22:55;96953.00;;;6.72;100.00
59831;BME280;45711;50.108;13.712;2024-03-02T04:25:20;96956.94;;;6.80;100.00
59831;BME280;45711;50.108;13.712;2024-03-02T04:27:46;96956.69;;;6.76;100.00
59831;BME280;45711;50.108;13.712;2024-03-02T04:30:11;96959.69;;;6.65;100.00
59831;BME280;45711;50.108;13.712;2024-03-02T04:32:40;96954.81;;;6.77;100.00
59831;BME280;45711;50.108;13.712;2024-03-02T04:35:06;96961.47;;;6.79;100.00
59831;BME280;45711;50.108;13.712;2024-03-02T04:37:35;96960.63;;;6.84;100.00
59831;BME280;45711;50.108;13.712;2024-03-02T04:40:02;96967.63;;;6.70;100.00
59831;BME280;45711;50.108;13.712;2024-03-02T04:42:28;96974.09;;;6.59;100.00
59831;BME280;45711;50.108;13.712;2024-03-02T04:44:57;96970.31;;;6.65;100.00
59831;BME280;45711;50.108;13.712;2024-03-02T04:47:22;96974.00;;;6.69;100.00
59831;BME280;45711;50.108;13.712;2024-03-02T04:49:48;96971.91;;;6.66;100.00
59831;BME280;45711;50.108;13.712;2024-03-02T04:52:13;96976.38;;;6.70;100.00
59831;BME280;45711;50.108;13.712;2024-03-02T04:54:39;96975.13;;;6.63;100.00
59831;BME280;45711;50.108;13.712;2024-03-02T04:57:35;96987.16;;;6.50;100.00
59831;BME280;45711;50.108;13.712;2024-03-02T05:00:00;96989.72;;;6.65;100.00
59831;BME280;45711;50.108;13.712;2024-03-02T05:02:26;96991.06;;;6.63;100.00
59831;BME280;45711;50.108;13.712;2024-03-02T05:04:51;96995.84;;;6.61;100.00
59831;BME280;45711;50.108;13.712;2024-03-02T05:07:17;96998.25;;;6.57;100.00
59831;BME280;45711;50.108;13.712;2024-03-02T05:09:42;97003.25;;;6.69;100.00
59831;BME280;45711;50.108;13.712;2024-03-02T05:12:08;97000.31;;;6.75;100.00
59831;BME280;45711;50.108;13.712;2024-03-02T05:14:53;97005.09;;;6.73;100.00
59831;BME280;45711;50.108;13.712;2024-03-02T05:17:19;97006.25;;;6.62;100.00
59831;BME280;45711;50.108;13.712;2024-03-02T05:19:44;97003.75;;;6.76;100.00
59831;BME280;45711;50.108;13.712;2024-03-02T05:22:10;97005.31;;;6.82;100.00
59831;BME280;45711;50.108;13.712;2024-03-02T05:24:35;97011.16;;;6.79;100.00
59831;BME280;45711;50.108;13.712;2024-03-02T05:27:01;97002.41;;;6.78;100.00
59831;BME280;45711;50.108;13.712;2024-03-02T05:29:27;97009.81;;;6.82;100.00
59831;BME280;45711;50.108;13.712;2024-03-02T05:31:54;97013.31;;;6.77;100.00
59831;BME280;45711;50.108;13.712;2024-03-02T05:34:19;97015.69;;;6.78;100.00
59831;BME280;45711;50.108;13.712;2024-03-02T05:36:45;97016.53;;;6.74;100.00
59831;BME280;45711;50.108;13.712;2024-03-02T05:39:10;97021.13;;;6.63;100.00
59831;BME280;45711;50.108;13.712;2024-03-02T05:41:36;97027.16;;;6.74;100.00
59831;BME280;45711;50.108;13.712;2024-03-02T05:44:01;97034.06;;;6.80;100.00
59831;BME280;45711;50.108;13.712;2024-03-02T05:46:27;97031.09;;;6.82;100.00
59831;BME280;45711;50.108;13.712;2024-03-02T05:48:54;97026.66;;;6.72;100.00
59831;BME280;45711;50.108;13.712;2024-03-02T05:51:19;97037.31;;;6.62;100.00
59831;BME280;45711;50.108;13.712;2024-03-02T05:53:45;97032.81;;;6.62;100.00
59831;BME280;45711;50.108;13.712;2024-03-02T05:56:11;97033.81;;;6.76;100.00
59831;BME280;45711;50.108;13.712;2024-03-02T05:58:37;97036.72;;;6.80;100.00
59831;BME280;45711;50.108;13.712;2024-03-02T06:01:23;97038.66;;;6.64;100.00
59831;BME280;45711;50.108;13.712;2024-03-02T06:03:55;97049.00;;;6.66;100.00
59831;BME280;45711;50.108;13.712;2024-03-02T06:06:20;97041.03;;;6.71;100.00
59831;BME280;45711;50.108;13.712;2024-03-02T06:08:46;97043.31;;;6.83;100.00
59831;BME280;45711;50.108;13.712;2024-03-02T06:11:11;97033.81;;;6.76;100.00
59831;BME280;45711;50.108;13.712;2024-03-02T06:13:37;97038.59;;;6.74;100.00
59831;BME280;45711;50.108;13.712;2024-03-02T06:16:03;97040.19;;;6.70;100.00
59831;BME280;45711;50.108;13.712;2024-03-02T06:18:28;97052.97;;;6.68;100.00
59831;BME280;45711;50.108;13.712;2024-03-02T06:20:55;97052.22;;;6.63;100.00
59831;BME280;45711;50.108;13.712;2024-03-02T06:23:21;97054.84;;;6.68;100.00
59831;BME280;45711;50.108;13.712;2024-03-02T06:25:46;97064.41;;;6.69;100.00
59831;BME280;45711;50.108;13.712;2024-03-02T06:28:12;97061.47;;;6.70;100.00
59831;BME280;45711;50.108;13.712;2024-03-02T06:30:40;97059.38;;;6.67;100.00
59831;BME280;45711;50.108;13.712;2024-03-02T06:33:06;97056.50;;;6.59;100.00
59831;BME280;45711;50.108;13.712;2024-03-02T06:35:31;97056.19;;;6.65;100.00
59831;BME280;45711;50.108;13.712;2024-03-02T06:37:58;97059.41;;;6.62;100.00
59831;BME280;45711;50.108;13.712;2024-03-02T06:40:24;97061.53;;;6.60;100.00
59831;BME280;45711;50.108;13.712;2024-03-02T06:42:49;97063.13;;;6.56;100.00
59831;BME280;45711;50.108;13.712;2024-03-02T06:45:15;97059.94;;;6.59;100.00
59831;BME280;45711;50.108;13.712;2024-03-02T06:47:40;97067.91;;;6.59;100.00
59831;BME280;45711;50.108;13.712;2024-03-02T06:50:06;97065.50;;;6.63;100.00
59831;BME280;45711;50.108;13.712;2024-03-02T06:52:32;97067.59;;;6.71;100.00
59831;BME280;45711;50.108;13.712;2024-03-02T06:54:59;97066.00;;;6.75;100.00
59831;BME280;45711;50.108;13.712;2024-03-02T06:57:24;97064.16;;;6.65;100.00
59831;BME280;45711;50.108;13.712;2024-03-02T06:59:50;97070.56;;;6.64;100.00
59831;BME280;45711;50.108;13.712;2024-03-02T07:02:16;97076.13;;;6.68;100.00
59831;BME280;45711;50.108;13.712;2024-03-02T07:04:42;97089.38;;;6.73;100.00
59831;BME280;45711;50.108;13.712;2024-03-02T07:07:08;97088.53;;;6.83;100.00
59831;BME280;45711;50.108;13.712;2024-03-02T07:09:33;97089.88;;;6.85;100.00
59831;BME280;45711;50.108;13.712;2024-03-02T07:12:00;97089.56;;;6.87;100.00
59831;BME280;45711;50.108;13.712;2024-03-02T07:14:28;97090.69;;;6.80;100.00
59831;BME280;45711;50.108;13.712;2024-03-02T07:17:13;97096.84;;;6.71;100.00
59831;BME280;45711;50.108;13.712;2024-03-02T07:19:39;97102.41;;;6.79;100.00
59831;BME280;45711;50.108;13.712;2024-03-02T07:22:08;97102.94;;;6.76;100.00
59831;BME280;45711;50.108;13.712;2024-03-02T07:24:39;97105.06;;;6.74;100.00
59831;BME280;45711;50.108;13.712;2024-03-02T07:27:06;97100.56;;;6.70;100.00
59831;BME280;45711;50.108;13.712;2024-03-02T07:29:32;97103.19;;;6.80;100.00
59831;BME280;45711;50.108;13.712;2024-03-02T07:31:57;97106.09;;;6.84;100.00
59831;BME280;45711;50.108;13.712;2024-03-02T07:34:23;97110.84;;;6.87;100.00
59831;BME280;45711;50.108;13.712;2024-03-02T07:36:48;97101.28;;;6.86;100.00
59831;BME280;45711;50.108;13.712;2024-03-02T07:39:14;97111.41;;;6.84;100.00
59831;BME280;45711;50.108;13.712;2024-03-02T07:41:40;97102.88;;;6.87;100.00
59831;BME280;45711;50.108;13.712;2024-03-02T07:44:07;97117.47;;;6.94;100.00
59831;BME280;45711;50.108;13.712;2024-03-02T07:46:32;97124.69;;;6.89;100.00
59831;BME280;45711;50.108;13.712;2024-03-02T07:48:58;97131.59;;;6.90;100.00
59831;BME280;45711;50.108;13.712;2024-03-02T07:51:24;97141.69;;;6.88;100.00
59831;BME280;45711;50.108;13.712;2024-03-02T07:53:49;97147.56;;;6.90;100.00
59831;BME280;45711;50.108;13.712;2024-03-02T07:56:15;97144.66;;;6.81;100.00
59831;BME280;45711;50.108;13.712;2024-03-02T07:58:47;97151.31;;;6.84;100.00
59831;BME280;45711;50.108;13.712;2024-03-02T08:01:15;97150.75;;;6.87;100.00
59831;BME280;45711;50.108;13.712;2024-03-02T08:03:42;97148.91;;;6.82;100.00
59831;BME280;45711;50.108;13.712;2024-03-02T08:06:08;97150.53;;;6.78;100.00
59831;BME280;45711;50.108;13.712;2024-03-02T08:08:33;97150.25;;;6.74;100.00
59831;BME280;45711;50.108;13.712;2024-03-02T08:10:59;97152.38;;;6.77;100.00
59831;BME280;45711;50.108;13.712;2024-03-02T08:13:24;97155.56;;;6.85;100.00
59831;BME280;45711;50.108;13.712;2024-03-02T08:15:50;97161.66;;;6.85;100.00
59831;BME280;45711;50.108;13.712;2024-03-02T08:18:18;97159.81;;;6.86;100.00
59831;BME280;45711;50.108;13.712;2024-03-02T08:20:43;97162.44;;;6.91;100.00
59831;BME280;45711;50.108;13.712;2024-03-02T08:23:09;97159.53;;;6.87;100.00
59831;BME280;45711;50.108;13.712;2024-03-02T08:25:34;97160.88;;;6.85;100.00
59831;BME280;45711;50.108;13.712;2024-03-02T08:28:00;97156.88;;;6.92;100.00
59831;BME280;45711;50.108;13.712;2024-03-02T08:30:26;97164.03;;;6.92;100.00
59831;BME280;45711;50.108;13.712;2024-03-02T08:32:51;97157.66;;;6.93;100.00
59831;BME280;45711;50.108;13.712;2024-03-02T08:35:18;97146.75;;;6.89;100.00
59831;BME280;45711;50.108;13.712;2024-03-02T08:37:44;97147.28;;;6.91;100.00
59831;BME280;45711;50.108;13.712;2024-03-02T08:40:13;97149.09;;;6.96;100.00
59831;BME280;45711;50.108;13.712;2024-03-02T08:42:39;97147.50;;;7.00;100.00
59831;BME280;45711;50.108;13.712;2024-03-02T08:45:06;97146.69;;;6.99;100.00
59831;BME280;45711;50.108;13.712;2024-03-02T08:47:32;97149.34;;;7.04;100.00
59831;BME280;45711;50.108;13.712;2024-03-02T08:49:59;97136.31;;;7.03;100.00
59831;BME280;45711;50.108;13.712;2024-03-02T08:52:26;97144.84;;;7.00;100.00
59831;BME280;45711;50.108;13.712;2024-03-02T08:54:51;97151.78;;;6.91;100.00
59831;BME280;45711;50.108;13.712;2024-03-02T08:57:17;97154.47;;;6.91;100.00
59831;BME280;45711;50.108;13.712;2024-03-02T08:59:43;97158.66;;;7.07;100.00
59831;BME280;45711;50.108;13.712;2024-03-02T09:02:09;97157.03;;;7.11;100.00
59831;BME280;45711;50.108;13.712;2024-03-02T09:04:35;97155.19;;;7.07;100.00
59831;BME280;45711;50.108;13.712;2024-03-02T09:07:01;97160.75;;;7.10;100.00
59831;BME280;45711;50.108;13.712;2024-03-02T09:09:27;97161.56;;;7.11;100.00
59831;BME280;45711;50.108;13.712;2024-03-02T09:11:53;97156.28;;;7.05;100.00
59831;BME280;45711;50.108;13.712;2024-03-02T09:14:20;97157.03;;;7.11;100.00
59831;BME280;45711;50.108;13.712;2024-03-02T09:16:45;97161.06;;;7.03;100.00
59831;BME280;45711;50.108;13.712;2024-03-02T09:19:11;97162.66;;;6.99;100.00
59831;BME280;45711;50.108;13.712;2024-03-02T09:21:36;97162.09;;;7.08;100.00
59831;BME280;45711;50.108;13.712;2024-03-02T09:24:02;97155.97;;;7.07;100.00
59831;BME280;45711;50.108;13.712;2024-03-02T09:26:30;97153.31;;;7.07;100.00
59831;BME280;45711;50.108;13.712;2024-03-02T09:28:55;97144.81;;;7.10;100.00
59831;BME280;45711;50.108;13.712;2024-03-02T09:31:23;97152.22;;;7.13;100.00
59831;BME280;45711;50.108;13.712;2024-03-02T09:33:49;97141.31;;;7.15;100.00
59831;BME280;45711;50.108;13.712;2024-03-02T09:36:17;97139.97;;;7.17;100.00
59831;BME280;45711;50.108;13.712;2024-03-02T09:38:43;97140.72;;;7.28;100.00
59831;BME280;45711;50.108;13.712;2024-03-02T09:41:09;97136.44;;;7.32;100.00
59831;BME280;45711;50.108;13.712;2024-03-02T09:43:38;97138.38;;;7.16;100.00
59831;BME280;45711;50.108;13.712;2024-03-02T09:46:05;97141.00;;;7.21;100.00
59831;BME280;45711;50.108;13.712;2024-03-02T09:48:31;97143.38;;;7.28;100.00
59831;BME280;45711;50.108;13.712;2024-03-02T09:50:57;97135.97;;;7.20;100.00
59831;BME280;45711;50.108;13.712;2024-03-02T09:53:23;97131.47;;;7.15;100.00
59831;BME280;45711;50.108;13.712;2024-03-02T09:55:49;97137.25;;;7.27;100.00
59831;BME280;45711;50.108;13.712;2024-03-02T09:58:15;97137.59;;;7.16;100.00
59831;BME280;45711;50.108;13.712;2024-03-02T10:00:45;97131.69;;;7.24;100.00
59831;BME280;45711;50.108;13.712;2024-03-02T10:03:12;97138.00;;;7.33;100.00
59831;BME280;45711;50.108;13.712;2024-03-02T10:05:38;97128.78;;;7.20;100.00
59831;BME280;45711;50.108;13.712;2024-03-02T10:08:04;97125.81;;;7.22;100.00
59831;BME280;45711;50.108;13.712;2024-03-02T10:10:36;97120.13;;;7.39;100.00
59831;BME280;45711;50.108;13.712;2024-03-02T10:13:06;97122.13;;;7.18;100.00
59831;BME280;45711;50.108;13.712;2024-03-02T10:15:32;97122.41;;;7.16;100.00
59831;BME280;45711;50.108;13.712;2024-03-02T10:17:59;97121.28;;;7.22;100.00
59831;BME280;45711;50.108;13.712;2024-03-02T10:20:25;97114.75;;;7.10;100.00
59831;BME280;45711;50.108;13.712;2024-03-02T10:22:54;97122.94;;;7.18;100.00
59831;BME280;45711;50.108;13.712;2024-03-02T10:25:29;97126.53;;;7.38;100.00
59831;BME280;45711;50.108;13.712;2024-03-02T10:27:57;97113.06;;;7.24;100.00
59831;BME280;45711;50.108;13.712;2024-03-02T10:30:23;97123.13;;;7.32;100.00
59831;BME280;45711;50.108;13.712;2024-03-02T10:32:49;97115.94;;;7.33;100.00
59831;BME280;45711;50.108;13.712;2024-03-02T10:35:19;97121.25;;;7.33;100.00
59831;BME280;45711;50.108;13.712;2024-03-02T10:37:48;97121.28;;;7.96;100.00
59831;BME280;45711;50.108;13.712;2024-03-02T10:40:14;97111.09;;;8.27;100.00
59831;BME280;45711;50.108;13.712;2024-03-02T10:42:41;97109.94;;;8.14;100.00
59831;BME280;45711;50.108;13.712;2024-03-02T10:45:09;97107.81;;;8.11;100.00
59831;BME280;45711;50.108;13.712;2024-03-02T10:47:38;97111.56;;;8.10;100.00
59831;BME280;45711;50.108;13.712;2024-03-02T10:50:05;97114.78;;;8.07;100.00
59831;BME280;45711;50.108;13.712;2024-03-02T10:52:35;97118.53;;;8.06;100.00
59831;BME280;45711;50.108;13.712;2024-03-02T10:55:03;97114.06;;;7.96;100.00
59831;BME280;45711;50.108;13.712;2024-03-02T10:57:35;97119.50;;;8.15;100.00
59831;BME280;45711;50.108;13.712;2024-03-02T11:00:08;97114.63;;;8.22;100.00
59831;BME280;45711;50.108;13.712;2024-03-02T11:02:41;97105.75;;;8.32;100.00
59831;BME280;45711;50.108;13.712;2024-03-02T11:05:10;97110.50;;;8.11;100.00
59831;BME280;45711;50.108;13.712;2024-03-02T11:07:38;97113.03;;;8.21;100.00
59831;BME280;45711;50.108;13.712;2024-03-02T11:10:05;97118.31;;;8.26;100.00
59831;BME280;45711;50.108;13.712;2024-03-02T11:12:38;97109.53;;;8.26;100.00
59831;BME280;45711;50.108;13.712;2024-03-02T11:15:10;97113.41;;;8.10;100.00
59831;BME280;45711;50.108;13.712;2024-03-02T11:17:38;97110.44;;;8.16;100.00
59831;BME280;45711;50.108;13.712;2024-03-02T11:20:09;97104.31;;;8.16;100.00
59831;BME280;45711;50.108;13.712;2024-03-02T11:22:37;97109.97;;;8.09;100.00
59831;BME280;45711;50.108;13.712;2024-03-02T11:25:03;97102.53;;;8.06;100.00
59831;BME280;45711;50.108;13.712;2024-03-02T11:28:01;97106.31;;;8.00;100.00
59831;BME280;45711;50.108;13.712;2024-03-02T11:30:53;97109.78;;;8.00;100.00
59831;BME280;45711;50.108;13.712;2024-03-02T11:33:26;97116.28;;;7.89;100.00
59831;BME280;45711;50.108;13.712;2024-03-02T11:35:55;97115.44;;;7.94;100.00
59831;BME280;45711;50.108;13.712;2024-03-02T11:38:22;97103.75;;;7.90;100.00
59831;BME280;45711;50.108;13.712;2024-03-02T11:40:50;97103.09;;;8.03;100.00
59831;BME280;45711;50.108;13.712;2024-03-02T11:43:15;97101.53;;;8.02;100.00
59831;BME280;45711;50.108;13.712;2024-03-02T11:45:42;97102.00;;;8.04;100.00
59831;BME280;45711;50.108;13.712;2024-03-02T11:48:11;97093.22;;;8.03;100.00
59831;BME280;45711;50.108;13.712;2024-03-02T11:50:40;97090.09;;;7.96;100.00
59831;BME280;45711;50.108;13.712;2024-03-02T11:53:08;97089.72;;;8.08;100.00
59831;BME280;45711;50.108;13.712;2024-03-02T11:55:35;97085.84;;;7.95;100.00
59831;BME280;45711;50.108;13.712;2024-03-02T11:58:01;97090.69;;;8.17;100.00
59831;BME280;45711;50.108;13.712;2024-03-02T12:04:02;97083.31;;;8.09;100.00
59831;BME280;45711;50.108;13.712;2024-03-02T12:07:23;97079.91;;;8.03;100.00
59831;BME280;45711;50.108;13.712;2024-03-02T12:10:01;97077.72;;;8.11;100.00
59831;BME280;45711;50.108;13.712;2024-03-02T12:12:29;97069.25;;;8.03;100.00
59831;BME280;45711;50.108;13.712;2024-03-02T12:14:55;97073.09;;;7.92;100.00
59831;BME280;45711;50.108;13.712;2024-03-02T12:17:21;97075.72;;;7.97;100.00
59831;BME280;45711;50.108;13.712;2024-03-02T12:19:47;97073.84;;;7.98;100.00
59831;BME280;45711;50.108;13.712;2024-03-02T12:22:12;97068.41;;;8.08;100.00
59831;BME280;45711;50.108;13.712;2024-03-02T12:24:38;97063.69;;;8.00;100.00
59831;BME280;45711;50.108;13.712;2024-03-02T12:27:05;97068.00;;;7.96;100.00
59831;BME280;45711;50.108;13.712;2024-03-02T12:29:34;97067.75;;;7.92;100.00
59831;BME280;45711;50.108;13.712;2024-03-02T12:31:59;97073.19;;;7.82;100.00
59831;BME280;45711;50.108;13.712;2024-03-02T12:34:27;97074.94;;;7.92;100.00
59831;BME280;45711;50.108;13.712;2024-03-02T12:36:52;97068.47;;;8.03;100.00
59831;BME280;45711;50.108;13.712;2024-03-02T12:39:19;97062.94;;;7.94;100.00
59831;BME280;45711;50.108;13.712;2024-03-02T12:41:45;97069.69;;;7.87;100.00
59831;BME280;45711;50.108;13.712;2024-03-02T12:44:11;97066.16;;;7.91;100.00
59831;BME280;45711;50.108;13.712;2024-03-02T12:46:38;97063.19;;;7.98;100.00
59831;BME280;45711;50.108;13.712;2024-03-02T12:49:08;97058.41;;;7.95;100.00
59831;BME280;45711;50.108;13.712;2024-03-02T12:51:36;97050.94;;;7.97;100.00
59831;BME280;45711;50.108;13.712;2024-03-02T12:54:02;97057.94;;;7.88;100.00